KFTW/FTW METAR and TAF weather

Enter ICAO airport designator
Station Type Date Time Source
KFTW METAR 2021/05/12 03:53 UTC NOAA

KFTW 120353Z 36010KT 4SM BR OVC005 14/14 A3011 RMK AO2 CIG 004V009 SLP193 T01390139


Station Type Date Time Source
KFTW Decoded METAR 2021/05/12 03:53 UTC NOAA

FORT WORTH MEACHAM INTERNATIONAL ., TX, United States (KFTW) 32-50N 097-22W 214M
May 11, 2021 - 11:53 PM EDT / 2021.05.12 0353 UTC
Wind: from the N (360 degrees) at 12 MPH (10 KT):0
Visibility: 4 mile(s):0
Sky conditions: overcast
Weather: mist
Temperature: 57.0 F (13.9 C)
Dew Point: 57.0 F (13.9 C)
Relative Humidity: 100%
Pressure (altimeter): 30.11 in. Hg (1019 hPa)
ob: KFTW 120353Z 36010KT 4SM BR OVC005 14/14 A3011 RMK AO2 CIG 004V009 SLP193 T01390139
cycle: 4

Station Type Date Time Source
KFTW TAF 2021/05/12 03:12 UTC NOAA

TAF
AMD KFTW 120310Z 1203/1224 01010KT 5SM BR OVC005
FM120600 03010KT 5SM BR OVC004
FM121500 04011KT P6SM OVC007
FM122100 04011KT P6SM BKN010

Example: see airport list